Terminal Aerodrome Forecast
Issued by NWS

Home | Current Version | Previous Version | Graphics & Text | Print | Product List | Glossary On
Versions: 1 2 3 4 5 6 7 8 9 10 11 12 13 14 15
000
FTUS43 KBIS 220500
TAFDIK
TAF
KDIK 220521Z 2206/2306 28012KT P6SM VCSH SCT070 BKN110
     FM221300 28013KT P6SM SCT014 BKN090
     FM221600 28015G22KT P6SM SKC
     FM230000 27008KT P6SM SKC
     FM230500 24006KT P6SM SKC=

USA.gov is the U.S. government's official web portal to all federal, state and local government web resources and services.